Time;durP1;ratioP1;P1;durP2;ratioP2;P2;SDS_P1;SDS_P2;PMS_P1;PMS_P2;Temp;Humidity;BMP_temperature;BMP_pressure;BME280_temperature;BME280_humidity;BME280_pressure;Samples;Min_cycle;Max_cycle;Signal;HPM_P1;HPM_P2
2022/08/27 00:00:52;;;;;;;49.92;47.53;;;;;;;23.63;43.49;101638.22;4976936;28;20081;-74
2022/08/27 00:03:18;;;;;;;52.35;49.65;;;;;;;23.61;43.29;101633.03;4977879;28;20031;-74
2022/08/27 00:05:43;;;;;;;51.13;48.47;;;;;;;23.60;43.35;101636.09;4977910;28;20089;-74
2022/08/27 00:08:11;;;;;;;53.55;50.75;;;;;;;23.59;42.99;101631.72;4978100;28;20089;-74
2022/08/27 00:10:37;;;;;;;53.00;49.00;;;;;;;23.58;43.14;101644.66;4978260;28;20031;-73
2022/08/27 00:13:03;;;;;;;54.28;51.47;;;;;;;23.55;43.42;101646.09;4977760;28;20030;-73
2022/08/27 00:15:29;;;;;;;51.95;49.25;;;;;;;23.54;43.05;101643.66;4977653;28;20030;-74
2022/08/27 00:17:54;;;;;;;50.60;47.90;;;;;;;23.52;43.43;101635.69;4977802;28;20482;-73
2022/08/27 00:20:23;;;;;;;51.35;48.67;;;;;;;23.51;43.28;101627.72;4977528;28;20031;-74
2022/08/27 00:22:49;;;;;;;53.10;50.08;;;;;;;23.48;43.50;101631.91;4977559;28;20022;-73
2022/08/27 00:25:15;;;;;;;53.05;50.20;;;;;;;23.47;43.19;101641.31;4977954;28;20356;-74
2022/08/27 00:27:41;;;;;;;52.55;49.45;;;;;;;23.45;43.05;101634.47;4977129;28;20077;-73
2022/08/27 00:30:11;;;;;;;49.85;47.35;;;;;;;23.45;43.43;101642.75;4977137;28;20031;-73
2022/08/27 00:32:37;;;;;;;51.63;48.92;;;;;;;23.42;43.42;101629.59;4976293;28;20161;-73
2022/08/27 00:35:03;;;;;;;52.20;49.50;;;;;;;23.40;43.24;101643.66;4977333;28;20031;-74
2022/08/27 00:37:28;;;;;;;52.42;49.72;;;;;;;23.39;42.96;101641.25;4992158;28;20387;-74
2022/08/27 00:39:54;;;;;;;49.15;46.55;;;;;;;23.38;43.07;101636.84;4976853;28;20031;-74
2022/08/27 00:42:21;;;;;;;52.00;49.30;;;;;;;23.36;43.29;101641.84;4992126;28;20511;-74
2022/08/27 00:44:47;;;;;;;51.83;49.03;;;;;;;23.34;43.56;101633.88;4977171;28;20073;-74
2022/08/27 00:47:17;;;;;;;49.33;46.45;;;;;;;23.33;43.68;101640.50;4977132;28;20414;-75
2022/08/27 00:49:53;;;;;;;50.55;47.95;;;;;;;23.29;43.13;101637.56;4991807;28;20042;-73
2022/08/27 00:52:26;;;;;;;50.60;47.75;;;;;;;23.27;43.22;101636.22;4976648;28;20364;-74
2022/08/27 00:54:58;;;;;;;49.15;46.72;;;;;;;23.26;43.47;101631.84;4977019;28;20411;-73
2022/08/27 00:57:25;;;;;;;48.78;46.10;;;;;;;23.24;43.36;101634.91;4975400;28;20041;-73
2022/08/27 00:59:51;;;;;;;48.88;46.50;;;;;;;23.22;43.38;101633.59;4976766;28;20034;-73
2022/08/27 01:02:19;;;;;;;51.03;48.22;;;;;;;23.21;43.00;101632.78;4976709;28;20467;-73
2022/08/27 01:05:05;;;;;;;;;;;;;;;23.19;43.53;101635.00;4977615;28;20041;-73
2022/08/27 01:07:35;;;;;;;48.75;46.20;;;;;;;23.15;42.99;101633.16;4976349;28;19917;-73
2022/08/27 01:10:03;;;;;;;47.97;45.55;;;;;;;23.15;43.14;101627.66;4975452;28;20035;-73
2022/08/27 01:12:31;;;;;;;47.97;45.20;;;;;;;23.11;43.25;101631.03;4976216;28;20450;-73
2022/08/27 01:14:57;;;;;;;;;;;;;;;23.10;43.52;101628.56;4976991;28;20073;-73
2022/08/27 01:17:23;;;;;;;50.78;47.70;;;;;;;23.08;43.50;101630.81;4976476;28;19945;-73
2022/08/27 01:19:59;;;;;;;47.58;44.97;;;;;;;23.05;43.23;101621.22;4976325;28;20034;-74
2022/08/27 01:22:50;;;;;;;51.45;48.67;;;;;;;23.04;43.23;101627.06;4976383;28;20031;-73
2022/08/27 01:25:16;;;;;;;49.53;46.92;;;;;;;23.01;43.17;101625.72;4976948;28;20045;-73
2022/08/27 01:27:43;;;;;;;49.40;46.75;;;;;;;23.00;43.47;101624.06;4976302;28;20085;-73
2022/08/27 01:30:11;;;;;;;50.47;47.72;;;;;;;22.99;43.75;101627.16;4976270;28;20101;-74
2022/08/27 01:32:37;;;;;;;48.83;46.22;;;;;;;22.97;43.38;101627.44;4974959;28;20493;-72
2022/08/27 01:35:07;;;;;;;49.58;46.78;;;;;;;22.96;43.75;101617.53;4975972;28;20072;-74
2022/08/27 01:37:34;;;;;;;50.33;47.63;;;;;;;22.96;43.43;101628.56;4974755;28;20430;-73
2022/08/27 01:40:00;;;;;;;48.10;45.45;;;;;;;22.93;43.83;101615.38;4975999;28;20027;-73
2022/08/27 01:42:33;;;;;;;48.00;45.75;;;;;;;22.93;43.28;101614.56;4975967;28;20027;-73
2022/08/27 01:45:23;;;;;;;48.08;45.78;;;;;;;22.90;43.41;101614.03;4976064;28;20101;-73
2022/08/27 01:47:49;;;;;;;49.03;46.33;;;;;;;22.88;43.32;101613.53;4975990;28;20027;-73
2022/08/27 01:50:28;;;;;;;48.30;45.40;;;;;;;22.86;43.36;101609.47;4974494;28;20049;-73
2022/08/27 01:52:55;;;;;;;49.13;46.50;;;;;;;22.85;43.69;101621.59;4976459;28;20035;-73
2022/08/27 01:55:24;;;;;;;47.05;44.75;;;;;;;22.83;43.70;101619.16;4975741;28;20030;-73
2022/08/27 01:57:50;;;;;;;49.05;46.58;;;;;;;22.82;43.69;101617.50;4990540;28;20379;-74
2022/08/27 02:00:25;;;;;;;50.17;47.47;;;;;;;22.80;43.25;101613.41;4991146;28;20035;-74
2022/08/27 02:02:51;;;;;;;47.88;45.38;;;;;;;22.79;43.66;101614.56;4975301;28;20085;-73
2022/08/27 02:05:17;;;;;;;48.70;45.72;;;;;;;22.77;43.82;101614.84;4991728;28;20038;-74
2022/08/27 02:07:43;;;;;;;47.92;45.30;;;;;;;22.76;43.54;101617.91;4990537;28;20106;-74
2022/08/27 02:10:12;;;;;;;51.40;48.90;;;;;;;22.76;43.88;101617.91;4990452;28;20118;-74
2022/08/27 02:12:37;;;;;;;50.88;48.28;;;;;;;22.73;43.29;101613.00;4975917;28;20031;-74
2022/08/27 02:15:04;;;;;;;48.80;45.80;;;;;;;22.72;43.53;101623.19;4975454;28;20034;-74
2022/08/27 02:17:30;;;;;;;49.08;46.65;;;;;;;22.71;43.85;101618.00;4975836;28;20042;-74
2022/08/27 02:19:55;;;;;;;47.00;44.60;;;;;;;22.68;43.52;101617.50;4975727;28;20344;-74
2022/08/27 02:22:21;;;;;;;46.70;44.20;;;;;;;22.67;43.68;101617.78;4975785;28;20447;-74
2022/08/27 02:24:47;;;;;;;50.72;48.13;;;;;;;22.66;43.39;101619.72;4975213;28;20368;-74
2022/08/27 02:27:12;;;;;;;46.92;44.42;;;;;;;22.66;43.67;101614.22;4990138;28;20031;-74
2022/08/27 02:29:38;;;;;;;49.92;46.90;;;;;;;22.62;43.74;101613.19;4975593;28;20515;-72
2022/08/27 02:32:04;;;;;;;50.05;47.45;;;;;;;22.61;43.97;101597.78;4975356;28;20049;-73
2022/08/27 02:34:29;;;;;;;51.58;48.90;;;;;;;22.60;43.49;101603.59;4975026;28;20142;-73
2022/08/27 02:36:54;;;;;;;48.17;45.38;;;;;;;22.58;43.94;101595.66;4975330;28;20035;-73
2022/08/27 02:39:20;;;;;;;48.65;46.05;;;;;;;22.58;43.90;101600.31;4975011;28;20031;-73
2022/08/27 02:41:47;;;;;;;45.13;42.92;;;;;;;22.55;43.53;101596.22;4975394;28;20084;-73
2022/08/27 02:44:13;;;;;;;47.05;44.65;;;;;;;22.54;43.73;101593.81;4974959;28;20037;-73
2022/08/27 02:46:38;;;;;;;49.40;46.45;;;;;;;22.53;43.86;101586.66;4974825;28;20121;-73
2022/08/27 02:49:04;;;;;;;47.45;44.85;;;;;;;22.51;43.96;101597.97;4989628;28;20438;-73
2022/08/27 02:51:29;;;;;;;48.50;45.97;;;;;;;22.50;44.13;101587.25;4974682;28;20460;-73
2022/08/27 02:53:55;;;;;;;49.17;46.42;;;;;;;22.47;43.58;101589.50;4974920;28;20525;-74
2022/08/27 02:56:20;;;;;;;46.78;44.28;;;;;;;22.45;43.83;101590.91;4974837;28;20395;-73
2022/08/27 02:58:46;;;;;;;48.22;45.67;;;;;;;22.44;43.84;101592.03;4974854;28;20415;-74
2022/08/27 03:01:11;;;;;;;48.33;45.83;;;;;;;22.43;43.96;101593.97;4973592;28;20034;-73
2022/08/27 03:03:37;;;;;;;48.63;46.13;;;;;;;22.42;43.81;101595.09;4974887;28;20035;-73
2022/08/27 03:06:03;;;;;;;47.20;44.50;;;;;;;22.40;43.98;101597.34;4974959;28;20117;-74
2022/08/27 03:08:28;;;;;;;48.92;46.33;;;;;;;22.39;43.69;101597.63;4974332;28;20102;-73
2022/08/27 03:10:55;;;;;;;46.92;44.38;;;;;;;22.38;44.26;101601.53;4989769;28;20101;-73
2022/08/27 03:13:22;;;;;;;48.53;46.13;;;;;;;22.35;44.26;101597.44;4974614;28;20058;-73
2022/08/27 03:15:47;;;;;;;46.88;44.30;;;;;;;22.34;43.76;101604.03;4974657;28;20054;-72
2022/08/27 03:18:19;;;;;;;47.92;45.50;;;;;;;22.33;44.24;101605.16;4974548;28;20478;-73
2022/08/27 03:20:50;;;;;;;49.75;46.50;;;;;;;22.32;44.34;101605.47;4976848;28;20047;-74
2022/08/27 03:23:17;;;;;;;48.00;45.20;;;;;;;22.30;43.77;101603.03;4979373;28;20030;-74
2022/08/27 03:25:50;;;;;;;47.95;45.28;;;;;;;22.31;44.35;101603.84;4978533;28;20122;-74
2022/08/27 03:28:16;;;;;;;45.53;42.85;;;;;;;22.28;44.18;101599.75;4979046;28;20035;-74
2022/08/27 03:30:44;;;;;;;50.40;47.47;;;;;;;22.27;43.94;101597.28;4978647;28;20038;-73
2022/08/27 03:33:10;;;;;;;;;;;;;;;22.25;43.96;101600.34;4978790;28;20034;-74
2022/08/27 03:35:36;;;;;;;45.35;42.85;;;;;;;22.23;44.11;101599.84;4978540;28;19914;-75
2022/08/27 03:38:01;;;;;;;47.33;45.03;;;;;;;22.21;44.10;101602.88;4992977;28;20082;-73
2022/08/27 03:40:27;;;;;;;45.28;42.97;;;;;;;22.20;44.04;101600.41;4977959;28;20117;-73
2022/08/27 03:42:52;;;;;;;46.47;43.53;;;;;;;22.19;44.24;101594.09;4993235;28;20353;-73
2022/08/27 03:45:17;;;;;;;45.22;42.42;;;;;;;22.17;44.27;101596.31;4978434;28;20039;-73
2022/08/27 03:47:43;;;;;;;46.00;43.53;;;;;;;22.16;44.33;101602.13;4978054;28;20031;-73
2022/08/27 03:50:09;;;;;;;46.47;43.97;;;;;;;22.15;44.53;101600.47;4992938;28;20174;-73
2022/08/27 03:52:36;;;;;;;44.90;42.58;;;;;;;22.14;44.40;101594.16;4978208;28;20066;-74
2022/08/27 03:55:03;;;;;;;48.05;45.22;;;;;;;22.14;44.37;101598.84;4978063;28;20078;-71
2022/08/27 03:57:29;;;;;;;47.30;44.80;;;;;;;22.12;44.52;101595.56;4977946;28;20089;-71
2022/08/27 03:59:55;;;;;;;45.65;42.97;;;;;;;22.11;44.48;101591.19;4978025;28;20038;-71
2022/08/27 04:02:21;;;;;;;48.40;45.70;;;;;;;22.09;44.23;101597.00;4977813;28;20525;-71
2022/08/27 04:04:46;;;;;;;48.20;45.70;;;;;;;22.08;44.33;101595.38;4977787;28;20043;-71
2022/08/27 04:07:12;;;;;;;44.05;41.75;;;;;;;22.08;44.11;101594.56;4977817;28;20066;-72
2022/08/27 04:09:37;;;;;;;46.45;43.88;;;;;;;22.06;44.67;101594.03;4977680;28;20428;-71
2022/08/27 04:12:03;;;;;;;46.85;44.28;;;;;;;22.04;44.14;101595.13;4977682;28;20438;-71
2022/08/27 04:14:28;;;;;;;46.53;43.88;;;;;;;22.04;44.44;101591.56;4977628;28;20058;-72
2022/08/27 04:16:55;;;;;;;45.67;42.90;;;;;;;22.03;44.20;101589.94;4978016;28;20129;-72
2022/08/27 04:19:21;;;;;;;46.55;43.88;;;;;;;22.02;44.64;101594.63;4977515;28;20034;-72
2022/08/27 04:21:46;;;;;;;48.63;45.88;;;;;;;22.00;44.84;101583.13;4978129;28;20027;-72
2022/08/27 04:24:12;;;;;;;44.17;41.90;;;;;;;21.99;44.75;101592.47;4977721;28;20035;-73
2022/08/27 04:26:41;;;;;;;46.88;44.15;;;;;;;21.98;44.78;101588.09;4977406;28;20455;-72
2022/08/27 04:29:07;;;;;;;45.38;43.03;;;;;;;21.97;44.85;101582.88;4976116;28;20501;-73
2022/08/27 04:31:34;;;;;;;46.78;44.17;;;;;;;21.96;44.27;101593.06;4977338;28;20035;-73
2022/08/27 04:33:59;;;;;;;45.47;42.97;;;;;;;21.95;44.47;101590.63;4992041;28;20081;-72
2022/08/27 04:36:25;;;;;;;44.83;42.33;;;;;;;21.93;44.48;101590.94;4977807;28;20043;-72
2022/08/27 04:38:50;;;;;;;49.72;46.92;;;;;;;21.94;44.71;101591.72;4977034;28;20034;-72
2022/08/27 04:41:18;;;;;;;48.13;45.50;;;;;;;21.91;44.40;101593.16;4977415;28;20042;-72
2022/08/27 04:43:55;;;;;;;45.10;42.70;;;;;;;21.91;44.88;101589.59;4977073;28;20031;-73
2022/08/27 04:46:31;;;;;;;45.05;42.55;;;;;;;21.89;44.85;101595.38;4977381;28;20086;-73
2022/08/27 04:48:58;;;;;;;46.25;43.53;;;;;;;21.88;44.66;101587.44;4976844;28;20045;-71
2022/08/27 04:51:25;;;;;;;46.08;43.67;;;;;;;21.87;44.62;101594.84;4977600;28;20026;-73
2022/08/27 04:53:51;;;;;;;47.10;44.38;;;;;;;21.86;44.91;101595.97;4976883;28;20042;-73
2022/08/27 04:56:22;;;;;;;47.00;44.55;;;;;;;21.84;44.69;101600.97;4976953;28;20057;-73
2022/08/27 04:58:49;;;;;;;46.97;44.47;;;;;;;21.83;44.68;101600.16;4977249;28;20035;-73
2022/08/27 05:01:26;;;;;;;44.03;41.55;;;;;;;21.82;45.10;101603.19;4976835;28;20034;-73
2022/08/27 05:03:52;;;;;;;45.10;42.45;;;;;;;21.81;44.70;101604.31;4977012;28;20023;-73
2022/08/27 05:06:18;;;;;;;46.10;43.22;;;;;;;21.80;44.77;101602.69;4976737;28;20043;-73
2022/08/27 05:08:44;;;;;;;44.10;41.83;;;;;;;21.78;45.04;101608.47;4976647;28;20086;-72
2022/08/27 05:11:13;;;;;;;46.72;44.22;;;;;;;21.77;45.08;101617.00;4976868;28;20035;-72
2022/08/27 05:13:40;;;;;;;44.95;42.55;;;;;;;21.76;45.19;101613.44;4976561;28;20027;-72
2022/08/27 05:16:08;;;;;;;46.25;43.67;;;;;;;21.74;45.05;101610.16;4976743;28;20414;-72
2022/08/27 05:18:35;;;;;;;45.75;43.03;;;;;;;21.74;44.76;101612.91;4976618;28;20041;-73
2022/08/27 05:21:01;;;;;;;45.92;43.15;;;;;;;21.73;45.02;101602.22;4976888;28;20027;-73
2022/08/27 05:23:26;;;;;;;46.30;43.80;;;;;;;21.73;45.29;101611.28;4976940;28;20034;-73
2022/08/27 05:25:52;;;;;;;45.08;42.72;;;;;;;21.71;44.94;101610.78;4976650;28;20407;-74
2022/08/27 05:28:22;;;;;;;44.72;42.15;;;;;;;21.71;44.97;101610.78;4976874;28;20035;-73
2022/08/27 05:30:50;;;;;;;46.67;43.75;;;;;;;21.70;45.08;101616.59;4976247;28;20475;-73
2022/08/27 05:33:19;;;;;;;44.80;42.38;;;;;;;21.70;44.99;101613.84;4975941;28;20443;-73
2022/08/27 05:35:51;;;;;;;44.45;42.17;;;;;;;21.68;44.92;101619.63;4975990;28;20038;-73
2022/08/27 05:38:20;;;;;;;44.03;41.63;;;;;;;21.67;44.96;101620.75;4976053;28;20094;-73
2022/08/27 05:40:46;;;;;;;;;;;;;;;21.66;44.85;101619.09;4976924;28;20066;-72
2022/08/27 05:43:13;;;;;;;43.03;40.63;;;;;;;21.64;44.83;101612.25;4975906;28;19910;-73
2022/08/27 05:45:45;;;;;;;43.85;41.45;;;;;;;21.64;45.22;101615.00;4976492;28;20035;-73
2022/08/27 05:48:10;;;;;;;43.75;41.25;;;;;;;21.62;45.23;101620.81;4976051;28;20027;-73
2022/08/27 05:50:37;;;;;;;44.83;42.42;;;;;;;21.61;45.04;101628.22;4976004;28;20371;-72
2022/08/27 05:53:02;;;;;;;46.28;43.85;;;;;;;21.61;45.00;101621.91;4975715;28;20066;-73
2022/08/27 05:55:28;;;;;;;43.72;41.40;;;;;;;21.60;45.09;101615.59;4975847;28;20109;-73
2022/08/27 05:57:53;;;;;;;44.22;42.00;;;;;;;21.59;44.99;101619.44;4975671;28;20037;-72
2022/08/27 06:03:02;;;;;;;47.25;44.53;;;;;;;21.59;45.53;101618.63;4975733;28;20038;-72
2022/08/27 06:05:28;;;;;;;43.55;41.03;;;;;;;21.58;45.23;101617.81;4975595;28;20039;-73
2022/08/27 06:07:53;;;;;;;43.83;41.38;;;;;;;21.58;45.68;101619.75;4975502;28;20490;-73
2022/08/27 06:10:18;;;;;;;44.28;41.67;;;;;;;21.58;45.48;101620.56;4975530;28;20030;-72
2022/08/27 06:12:44;;;;;;;43.78;41.22;;;;;;;21.57;45.53;101621.69;4990277;28;20039;-73
2022/08/27 06:15:10;;;;;;;43.88;41.30;;;;;;;21.57;45.58;101621.69;4975315;28;20134;-73
2022/08/27 06:17:35;;;;;;;45.08;42.67;;;;;;;21.58;45.26;101633.50;4975326;28;20035;-72
2022/08/27 06:20:01;;;;;;;45.17;42.85;;;;;;;21.58;45.47;101633.50;4974908;28;20034;-73
2022/08/27 06:22:26;;;;;;;43.85;41.35;;;;;;;21.57;45.72;101627.19;4975169;28;20038;-73
2022/08/27 06:24:51;;;;;;;45.28;42.10;;;;;;;21.57;45.73;101621.69;4975159;28;20532;-74
2022/08/27 06:27:19;;;;;;;45.38;42.95;;;;;;;21.57;45.74;101621.69;4975225;28;20031;-73
2022/08/27 06:29:44;;;;;;;44.60;42.38;;;;;;;21.57;45.39;101624.44;4975359;28;20127;-73
2022/08/27 06:32:11;;;;;;;49.00;46.38;;;;;;;21.57;45.58;101623.59;4975627;28;20069;-73
2022/08/27 06:34:37;;;;;;;46.53;43.97;;;;;;;21.57;45.47;101626.34;4975029;28;20065;-72
2022/08/27 06:37:03;;;;;;;43.88;41.50;;;;;;;21.57;46.07;101624.44;4974847;28;20031;-72
2022/08/27 06:39:30;;;;;;;44.55;41.95;;;;;;;21.57;45.77;101627.19;4974980;28;20030;-72
2022/08/27 06:41:56;;;;;;;46.38;43.97;;;;;;;21.57;46.14;101621.69;4975365;28;20045;-73
2022/08/27 06:44:23;;;;;;;45.35;42.50;;;;;;;21.58;45.93;101634.31;4974956;28;20069;-72
2022/08/27 06:46:49;;;;;;;47.13;43.97;;;;;;;21.58;46.32;101634.31;4975418;28;20101;-72
2022/08/27 06:49:14;;;;;;;46.05;43.55;;;;;;;21.59;46.03;101635.13;4974623;28;20462;-72
2022/08/27 06:51:44;;;;;;;44.85;42.40;;;;;;;21.59;46.38;101627.69;4974896;28;20070;-73
2022/08/27 06:54:13;;;;;;;44.45;42.05;;;;;;;21.58;46.05;101623.31;4974807;28;20047;-74
2022/08/27 06:56:41;;;;;;;42.88;40.40;;;;;;;21.59;45.92;101624.94;4974528;28;20054;-74
2022/08/27 06:59:10;;;;;;;44.03;41.72;;;;;;;21.61;46.53;101627.41;4974923;28;20038;-74
2022/08/27 07:01:38;;;;;;;46.58;44.08;;;;;;;21.63;46.29;101621.63;4975297;28;20034;-74
2022/08/27 07:04:06;;;;;;;44.63;42.13;;;;;;;21.64;46.31;101626.81;4974710;28;20030;-74
2022/08/27 07:06:33;;;;;;;44.42;41.92;;;;;;;21.66;46.05;101629.28;4989589;28;20030;-73
2022/08/27 07:08:59;;;;;;;44.80;42.00;;;;;;;21.66;46.05;101627.34;4974621;28;20041;-73
2022/08/27 07:11:27;;;;;;;44.22;41.88;;;;;;;21.67;46.38;101625.41;4975040;28;20358;-73
2022/08/27 07:13:53;;;;;;;42.88;40.38;;;;;;;21.68;46.14;101630.63;4974499;28;20423;-73
2022/08/27 07:16:21;;;;;;;41.72;39.55;;;;;;;21.70;46.42;101622.09;4974874;28;20035;-73
2022/08/27 07:18:49;;;;;;;43.42;41.10;;;;;;;21.72;46.38;101625.31;4974481;28;20037;-73
2022/08/27 07:21:15;;;;;;;43.45;40.90;;;;;;;21.73;45.73;101621.47;4989482;28;20108;-74
2022/08/27 07:23:40;;;;;;;43.88;41.25;;;;;;;21.74;45.95;101632.16;4974985;28;20379;-73
2022/08/27 07:26:11;;;;;;;46.67;43.92;;;;;;;21.75;45.93;101633.81;4974409;28;20118;-73
2022/08/27 07:28:38;;;;;;;42.83;40.30;;;;;;;21.77;46.25;101631.59;4974513;28;20549;-73
2022/08/27 07:31:09;;;;;;;44.67;42.40;;;;;;;21.80;46.47;101632.94;4989319;28;20085;-73
2022/08/27 07:33:35;;;;;;;45.35;42.03;;;;;;;21.82;45.85;101636.19;4974373;28;20063;-73
2022/08/27 07:36:02;;;;;;;44.05;41.75;;;;;;;21.86;46.37;101636.44;4973019;28;20082;-73
2022/08/27 07:38:27;;;;;;;44.15;41.88;;;;;;;21.88;46.46;101642.44;4974285;28;20041;-73
2022/08/27 07:40:53;;;;;;;44.60;42.30;;;;;;;21.91;46.16;101631.66;4974054;28;20114;-71
2022/08/27 07:46:03;;;;;;;44.35;42.05;;;;;;;21.97;46.23;101635.97;4974810;28;20050;-73
2022/08/27 07:48:29;;;;;;;43.63;41.42;;;;;;;22.01;46.08;101642.50;4974852;28;20070;-73
2022/08/27 07:50:55;;;;;;;45.35;42.63;;;;;;;22.05;46.51;101642.75;4974235;28;20055;-72
2022/08/27 07:53:20;;;;;;;45.42;42.70;;;;;;;22.09;46.42;101649.28;4974000;28;20043;-73
2022/08/27 07:55:46;;;;;;;45.97;43.35;;;;;;;22.12;46.11;101653.34;4974226;28;20035;-72
2022/08/27 07:58:12;;;;;;;44.65;42.05;;;;;;;22.17;46.30;101650.53;4974160;28;20449;-73
2022/08/27 08:00:42;;;;;;;44.65;42.20;;;;;;;22.20;46.72;101656.31;4974227;28;20122;-73
2022/08/27 08:03:08;;;;;;;48.50;45.95;;;;;;;22.23;46.46;101660.38;4972974;28;20066;-73
2022/08/27 08:05:34;;;;;;;43.60;41.50;;;;;;;22.28;46.03;101656.75;4974250;28;20035;-73
2022/08/27 08:07:59;;;;;;;47.08;44.50;;;;;;;22.33;46.26;101667.66;4978043;28;20374;-73
2022/08/27 08:10:25;;;;;;;44.70;42.40;;;;;;;22.38;46.14;101656.56;4977761;28;20057;-73
2022/08/27 08:12:50;;;;;;;45.03;42.83;;;;;;;22.43;46.08;101662.81;4977756;28;20092;-73
2022/08/27 08:15:17;;;;;;;45.92;43.53;;;;;;;22.47;46.40;101655.56;4978019;28;20447;-73
2022/08/27 08:17:43;;;;;;;46.15;43.83;;;;;;;22.55;46.52;101659.56;4978219;28;20057;-73
2022/08/27 08:20:10;;;;;;;47.22;44.58;;;;;;;22.61;46.31;101660.31;4977497;28;20038;-73
2022/08/27 08:22:37;;;;;;;45.15;42.75;;;;;;;22.66;46.46;101662.97;4977534;28;20063;-74
2022/08/27 08:25:03;;;;;;;50.28;47.47;;;;;;;22.71;46.31;101660.13;4977449;28;20058;-73
2022/08/27 08:27:29;;;;;;;48.15;45.22;;;;;;;22.77;45.99;101655.34;4977605;28;20035;-73
2022/08/27 08:29:54;;;;;;;47.80;45.28;;;;;;;22.84;46.16;101658.53;4977368;28;20046;-73
2022/08/27 08:32:20;;;;;;;47.88;44.75;;;;;;;22.91;45.63;101658.94;4977186;28;20093;-73
2022/08/27 08:34:46;;;;;;;48.08;45.67;;;;;;;22.98;45.54;101664.06;4978073;28;20035;-78
2022/08/27 08:37:13;;;;;;;49.83;47.30;;;;;;;23.05;45.50;101672.75;4978291;28;20113;-73
2022/08/27 08:39:39;;;;;;;50.03;47.53;;;;;;;23.10;45.27;101670.72;4977477;28;20049;-73
2022/08/27 08:42:07;;;;;;;50.22;47.70;;;;;;;23.17;45.26;101669.50;4977262;28;20592;-73
2022/08/27 08:44:47;;;;;;;50.95;47.78;;;;;;;23.25;45.47;101663.28;4992459;28;20414;-73
2022/08/27 08:47:14;;;;;;;49.28;46.78;;;;;;;23.35;45.14;101673.28;4975781;28;20031;-73
2022/08/27 08:49:49;;;;;;;50.78;48.03;;;;;;;23.42;44.90;101662.69;4976680;28;20486;-73
2022/08/27 08:52:28;;;;;;;52.30;49.50;;;;;;;23.49;45.01;101669.41;4976678;28;20120;-73
2022/08/27 08:55:19;;;;;;;53.28;50.80;;;;;;;23.54;45.11;101677.56;4977003;28;20085;-73
2022/08/27 08:58:13;;;;;;;47.95;45.70;;;;;;;23.62;45.11;101678.78;4976718;28;20074;-76
2022/08/27 09:00:42;;;;;;;49.38;47.00;;;;;;;23.68;45.28;101671.22;4983546;28;20065;-79
2022/08/27 09:03:11;;;;;;;52.72;50.20;;;;;;;23.73;44.73;101674.72;4996983;28;20027;-73
2022/08/27 09:05:40;;;;;;;51.95;49.33;;;;;;;23.80;44.92;101671.53;4978721;28;20031;-74
2022/08/27 09:08:14;;;;;;;51.88;49.38;;;;;;;23.86;44.25;101673.03;4977812;28;20093;-74
2022/08/27 09:11:18;;;;;;;50.22;47.83;;;;;;;23.93;44.44;101667.91;4977223;28;20027;-72
2022/08/27 09:13:52;;;;;;;51.60;49.05;;;;;;;23.96;43.92;101670.09;4977376;28;20507;-75
2022/08/27 09:16:17;;;;;;;56.10;53.28;;;;;;;23.98;43.66;101675.28;4977197;28;20045;-72
2022/08/27 09:18:44;;;;;;;51.28;48.78;;;;;;;24.01;43.42;101677.41;4975448;28;20035;-72
2022/08/27 09:21:22;;;;;;;54.75;51.85;;;;;;;24.04;43.33;101674.03;4976072;28;20030;-74
2022/08/27 09:24:18;;;;;;;50.03;47.30;;;;;;;24.05;43.58;101672.91;4976788;28;20034;-79
2022/08/27 09:26:44;;;;;;;52.03;49.45;;;;;;;24.06;43.38;101670.94;4991754;28;20163;-72
2022/08/27 09:29:18;;;;;;;55.88;52.97;;;;;;;24.05;43.53;101669.34;4990663;28;20085;-72
2022/08/27 09:32:04;;;;;;;53.88;51.00;;;;;;;24.05;43.32;101677.63;4991042;28;20452;-73
2022/08/27 09:34:38;;;;;;;54.55;51.72;;;;;;;24.05;42.91;101675.66;4974696;28;20026;-73
2022/08/27 09:37:14;;;;;;;50.60;48.10;;;;;;;24.07;42.80;101678.94;4976007;28;20118;-73
2022/08/27 09:40:05;;;;;;;51.25;48.38;;;;;;;24.11;43.01;101668.88;4976520;28;20034;-74
2022/08/27 09:43:03;;;;;;;51.85;48.90;;;;;;;24.17;42.60;101672.38;4976021;28;20035;-73
2022/08/27 09:45:29;;;;;;;50.78;48.17;;;;;;;24.17;42.84;101673.16;4976018;28;20062;-73
2022/08/27 09:48:17;;;;;;;51.67;49.08;;;;;;;24.21;42.57;101664.25;4990203;28;20079;-73
2022/08/27 09:50:49;;;;;;;51.17;48.40;;;;;;;24.21;42.64;101670.59;4975530;28;20051;-73
2022/08/27 09:53:24;;;;;;;52.63;49.92;;;;;;;24.23;42.21;101673.06;4976324;28;20074;-73
2022/08/27 09:55:57;;;;;;;52.97;50.20;;;;;;;24.25;42.36;101668.03;4975787;28;20034;-72
2022/08/27 09:58:28;;;;;;;52.60;49.70;;;;;;;24.29;42.26;101674.53;4975775;28;20031;-72
2022/08/27 10:01:04;;;;;;;55.63;52.92;;;;;;;24.31;42.45;101681.38;4990459;28;20085;-73
2022/08/27 10:03:29;;;;;;;57.47;54.42;;;;;;;24.33;42.17;101673.63;4975270;28;20128;-72
2022/08/27 10:05:55;;;;;;;54.40;51.55;;;;;;;24.33;42.39;101676.38;4990696;28;20066;-73
2022/08/27 10:08:37;;;;;;;56.45;53.65;;;;;;;24.35;42.30;101676.88;4990335;28;20129;-72
2022/08/27 10:11:05;;;;;;;51.00;48.40;;;;;;;24.35;41.96;101673.31;4975673;28;20042;-73
2022/08/27 10:13:39;;;;;;;53.40;50.80;;;;;;;24.33;42.18;101676.38;4975667;28;20033;-70
2022/08/27 10:16:23;;;;;;;55.45;52.75;;;;;;;24.35;41.98;101668.59;4975450;28;20092;-71
2022/08/27 10:19:19;;;;;;;53.45;50.88;;;;;;;24.38;41.32;101664.41;4975689;28;20083;-70
2022/08/27 10:22:19;;;;;;;54.30;51.70;;;;;;;24.44;41.46;101667.84;4975200;28;20454;-70
2022/08/27 10:25:00;;;;;;;53.92;51.15;;;;;;;24.46;41.02;101666.41;4975694;28;20034;-72
2022/08/27 10:27:48;;;;;;;55.67;53.08;;;;;;;24.44;41.48;101663.13;4975161;28;20031;-76
2022/08/27 10:30:18;;;;;;;54.92;51.92;;;;;;;24.46;41.59;101660.91;4975078;28;20033;-83
2022/08/27 10:32:59;;;;;;;57.10;54.13;;;;;;;24.51;40.85;101657.19;4975383;28;20451;-72
2022/08/27 10:35:56;;;;;;;52.60;49.85;;;;;;;24.53;41.24;101655.75;4974100;28;20019;-76
2022/08/27 10:39:08;;;;;;;53.88;51.28;;;;;;;24.58;41.56;101652.84;4990239;28;20382;-75
2022/08/27 10:41:41;;;;;;;53.15;50.55;;;;;;;24.67;41.16;101657.63;4944233;28;20047;-75
2022/08/27 10:44:18;;;;;;;53.47;50.78;;;;;;;24.74;41.38;101660.75;4974880;28;20041;-75
2022/08/27 10:46:52;;;;;;;57.40;54.42;;;;;;;24.82;41.48;101652.53;4973890;28;20027;-75
2022/08/27 10:49:20;;;;;;;56.50;53.80;;;;;;;24.88;41.49;101653.19;4974235;28;20537;-74
2022/08/27 10:51:45;;;;;;;;;;;;;;;24.96;41.57;101651.59;4990339;28;20483;-74
2022/08/27 10:54:29;;;;;;;55.33;52.53;;;;;;;25.03;41.41;101643.66;4974893;28;20077;-74
2022/08/27 10:57:03;;;;;;;56.33;53.53;;;;;;;25.08;41.69;101646.28;4973887;28;20777;-74
2022/08/27 11:00:00;;;;;;;55.75;52.78;;;;;;;25.15;40.46;101645.81;4974983;28;20038;-74
2022/08/27 11:02:40;;;;;;;55.83;53.03;;;;;;;25.20;42.15;101652.06;4973736;28;20108;-74
2022/08/27 11:05:15;;;;;;;55.78;52.83;;;;;;;25.25;41.50;101648.34;4975517;28;20495;-73
2022/08/27 11:07:45;;;;;;;61.25;58.20;;;;;;;25.30;41.82;101648.19;4974375;28;20054;-73
2022/08/27 11:10:25;;;;;;;58.47;55.63;;;;;;;25.35;41.37;101649.97;4974303;28;20080;-75
2022/08/27 11:12:54;;;;;;;63.28;60.08;;;;;;;25.40;41.13;101655.34;4989843;28;20375;-73
2022/08/27 11:15:29;;;;;;;62.30;59.20;;;;;;;25.44;41.28;101651.63;4974311;28;20038;-74
2022/08/27 11:18:14;;;;;;;60.13;57.13;;;;;;;25.50;41.07;101651.47;4974539;28;20475;-74
2022/08/27 11:21:04;;;;;;;58.45;55.65;;;;;;;25.54;41.07;101649.72;4974747;28;20395;-74
2022/08/27 11:23:29;;;;;;;61.92;58.95;;;;;;;25.57;41.65;101643.53;4974411;28;20035;-74
2022/08/27 11:25:58;;;;;;;60.45;57.53;;;;;;;25.60;41.15;101646.47;4974913;28;20514;-74
2022/08/27 11:28:37;;;;;;;60.88;57.85;;;;;;;25.65;41.54;101642.72;4974122;28;20090;-75